Time;durP1;ratioP1;P1;durP2;ratioP2;P2;SDS_P1;SDS_P2;PMS_P1;PMS_P2;Temp;Humidity;BMP_temperature;BMP_pressure;BME280_temperature;BME280_humidity;BME280_pressure;Samples;Min_cycle;Max_cycle;Signal;HPM_P1;HPM_P2
2023/04/17 00:02:03;;;;;;;0.70;0.40;;;;;;;14.56;51.11;95823.22;5042914;28;20033;-33
2023/04/17 00:04:29;;;;;;;0.57;0.40;;;;;;;14.63;50.92;95822.06;5042698;28;20048;-31
2023/04/17 00:06:55;;;;;;;1.20;0.40;;;;;;;14.58;51.03;95820.00;5036036;28;20075;-31
2023/04/17 00:09:21;;;;;;;1.85;0.60;;;;;;;14.71;50.71;95823.97;5036389;28;20029;-31
2023/04/17 00:11:46;;;;;;;0.68;0.40;;;;;;;14.61;50.68;95825.28;5043017;28;20381;-31
2023/04/17 00:14:13;;;;;;;0.60;0.50;;;;;;;14.59;50.97;95816.78;5042880;28;20048;-31
2023/04/17 00:16:38;;;;;;;0.90;0.40;;;;;;;14.66;50.52;95821.91;5036564;28;20461;-31
2023/04/17 00:19:04;;;;;;;0.68;0.40;;;;;;;14.53;50.98;95820.66;5042121;28;20017;-31
2023/04/17 00:21:30;;;;;;;0.70;0.50;;;;;;;14.70;50.45;95822.50;5036330;28;20021;-32
2023/04/17 00:23:56;;;;;;;1.80;0.55;;;;;;;14.55;50.69;95813.50;5039454;28;20104;-31
2023/04/17 00:26:21;;;;;;;1.17;0.55;;;;;;;14.63;50.32;95817.38;5039303;28;20125;-31
2023/04/17 00:28:49;;;;;;;0.93;0.50;;;;;;;14.75;49.75;95810.16;5042905;28;20083;-33
2023/04/17 00:31:15;;;;;;;0.70;0.55;;;;;;;14.73;50.09;95812.59;5035621;28;20036;-31
2023/04/17 00:33:40;;;;;;;1.20;0.60;;;;;;;14.61;50.31;95816.31;5036204;28;20112;-32
2023/04/17 00:36:07;;;;;;;0.60;0.50;;;;;;;14.59;50.20;95814.06;5038658;28;20108;-31
2023/04/17 00:38:32;;;;;;;0.77;0.63;;;;;;;14.79;49.87;95812.69;5046367;28;20037;-31
2023/04/17 00:40:58;;;;;;;0.73;0.50;;;;;;;14.61;50.54;95811.63;5043508;28;20020;-31
2023/04/17 00:43:23;;;;;;;0.98;0.70;;;;;;;14.65;50.36;95811.44;5041085;28;20025;-31
2023/04/17 00:45:49;;;;;;;0.73;0.45;;;;;;;14.68;50.56;95805.81;5035404;28;20025;-32
2023/04/17 00:48:16;;;;;;;0.80;0.60;;;;;;;14.65;50.45;95814.19;5035574;28;20020;-32
2023/04/17 00:50:43;;;;;;;1.05;0.50;;;;;;;14.40;50.81;95814.69;5041563;28;20108;-31
2023/04/17 00:53:09;;;;;;;0.60;0.50;;;;;;;14.62;50.20;95804.94;5037575;28;20036;-32
2023/04/17 00:55:38;;;;;;;0.90;0.70;;;;;;;14.67;50.34;95807.03;5041740;28;20032;-31
2023/04/17 00:58:03;;;;;;;1.17;0.80;;;;;;;14.66;50.34;95800.06;5035231;28;20021;-31
2023/04/17 01:00:29;;;;;;;0.85;0.60;;;;;;;14.67;49.94;95807.03;5041856;28;20016;-31
2023/04/17 01:02:56;;;;;;;0.80;0.60;;;;;;;14.62;50.06;95798.75;5035113;28;20017;-31
2023/04/17 01:05:22;;;;;;;1.98;0.88;;;;;;;14.72;50.08;95805.63;5042280;28;20121;-31
2023/04/17 01:07:48;;;;;;;0.88;0.60;;;;;;;14.72;50.19;95800.16;5041762;28;20477;-31
2023/04/17 01:10:14;;;;;;;0.70;0.60;;;;;;;14.71;50.10;95795.94;5035012;28;20049;-33
2023/04/17 01:12:41;;;;;;;0.80;0.60;;;;;;;14.72;50.05;95803.66;5034858;28;20025;-31
2023/04/17 01:15:07;;;;;;;2.13;0.98;;;;;;;14.69;50.20;95803.84;5035055;28;20021;-31
2023/04/17 01:17:32;;;;;;;1.33;0.70;;;;;;;14.70;50.32;95808.84;5043326;28;20028;-31
2023/04/17 01:19:58;;;;;;;1.45;0.90;;;;;;;14.66;50.06;95811.00;5045157;28;20015;-32
2023/04/17 01:22:23;;;;;;;1.08;0.77;;;;;;;14.58;50.25;95806.38;5037292;28;20025;-32
2023/04/17 01:24:49;;;;;;;1.63;0.80;;;;;;;14.79;49.79;95809.97;5047043;28;20037;-31
2023/04/17 01:27:14;;;;;;;1.50;0.85;;;;;;;14.68;50.24;95813.25;5034604;28;20044;-31
2023/04/17 01:29:41;;;;;;;0.95;0.80;;;;;;;14.68;50.07;95814.00;5034412;28;20036;-31
2023/04/17 01:32:07;;;;;;;1.27;0.77;;;;;;;14.63;49.92;95811.16;5034636;28;20468;-31
2023/04/17 01:34:32;;;;;;;1.10;0.70;;;;;;;14.60;50.19;95801.94;5041703;28;20051;-32
2023/04/17 01:36:58;;;;;;;1.48;1.00;;;;;;;14.62;50.23;95809.66;5048993;28;20028;-30
2023/04/17 01:39:23;;;;;;;1.67;0.80;;;;;;;14.48;50.55;95811.13;5034386;28;20024;-31
2023/04/17 01:41:50;;;;;;;1.58;1.00;;;;;;;14.71;49.95;95807.59;5039521;28;20070;-30
2023/04/17 01:44:16;;;;;;;2.58;1.10;;;;;;;14.76;50.10;95803.47;5034361;28;20017;-31
2023/04/17 01:46:41;;;;;;;2.17;1.30;;;;;;;14.62;50.18;95802.22;5041455;28;20021;-31
2023/04/17 01:49:07;;;;;;;1.58;1.05;;;;;;;14.68;49.80;95797.63;5034994;28;20039;-32
2023/04/17 01:51:32;;;;;;;1.77;1.08;;;;;;;14.69;49.93;95799.16;5034410;28;20025;-31
2023/04/17 01:53:58;;;;;;;2.55;1.52;;;;;;;14.53;50.28;95793.38;5034270;28;20025;-31
2023/04/17 01:56:24;;;;;;;2.70;1.40;;;;;;;14.64;49.98;95793.56;5032828;28;20481;-31
2023/04/17 01:58:50;;;;;;;1.77;1.08;;;;;;;14.46;50.57;95797.22;5033676;28;20017;-32
2023/04/17 02:01:16;;;;;;;1.92;1.33;;;;;;;14.57;50.15;95800.16;5035441;28;20030;-32
2023/04/17 02:03:41;;;;;;;1.83;1.20;;;;;;;14.59;50.32;95794.97;5041046;28;20167;-31
2023/04/17 02:06:06;;;;;;;3.22;1.13;;;;;;;14.68;49.91;95797.63;5033822;28;20020;-31
2023/04/17 02:08:33;;;;;;;2.30;1.30;;;;;;;14.54;50.01;95787.44;5039297;28;20068;-31
2023/04/17 02:10:58;;;;;;;1.92;1.17;;;;;;;14.59;50.13;95784.03;5033728;28;20028;-29
2023/04/17 02:13:24;;;;;;;2.35;1.40;;;;;;;14.59;50.02;95788.75;5041212;28;20032;-29
2023/04/17 02:15:50;;;;;;;2.00;1.70;;;;;;;14.56;49.81;95789.72;5037555;28;20025;-31
2023/04/17 02:18:15;;;;;;;2.00;1.40;;;;;;;14.44;49.98;95791.47;5044526;28;20016;-29
2023/04/17 02:20:41;;;;;;;2.42;1.35;;;;;;;14.50;50.11;95792.31;5033771;28;20120;-29
2023/04/17 02:23:07;;;;;;;2.15;1.45;;;;;;;14.62;49.97;95783.13;5033874;28;20032;-31
2023/04/17 02:25:33;;;;;;;1.77;1.20;;;;;;;14.48;50.27;95788.53;5034156;28;20377;-30
2023/04/17 02:27:58;;;;;;;2.30;1.60;;;;;;;14.44;50.32;95793.44;5032205;28;20728;-30
2023/04/17 02:30:25;;;;;;;1.95;1.40;;;;;;;14.32;50.67;95792.44;5040895;28;20048;-30
2023/04/17 02:32:52;;;;;;;2.72;1.70;;;;;;;14.70;49.69;95783.53;5039590;28;20072;-29
2023/04/17 02:35:22;;;;;;;3.22;1.80;;;;;;;14.63;49.57;95792.06;5033657;28;20033;-29
2023/04/17 02:37:48;;;;;;;1.80;1.60;;;;;;;14.61;50.23;95787.06;5041117;28;20083;-29
2023/04/17 02:40:14;;;;;;;3.10;2.20;;;;;;;14.67;49.70;95789.91;5033683;28;20092;-29
2023/04/17 02:42:39;;;;;;;4.13;1.90;;;;;;;14.67;49.38;95782.47;5048603;28;20093;-29
2023/04/17 02:45:05;;;;;;;2.85;1.55;;;;;;;14.48;50.15;95786.56;5039900;28;20099;-29
2023/04/17 02:47:31;;;;;;;2.47;1.60;;;;;;;14.58;49.87;95790.75;5042975;28;20029;-29
2023/04/17 02:49:58;;;;;;;2.55;1.92;;;;;;;14.51;50.24;95785.63;5037754;28;20032;-29
2023/04/17 02:52:27;;;;;;;2.65;1.60;;;;;;;14.49;50.25;95800.97;5037649;28;20156;-28
2023/04/17 02:54:53;;;;;;;2.88;1.80;;;;;;;14.56;50.11;95800.63;5037780;28;20026;-29
2023/04/17 02:57:19;;;;;;;3.35;2.10;;;;;;;14.50;49.93;95799.75;5037353;28;20024;-29
2023/04/17 02:59:44;;;;;;;2.50;1.60;;;;;;;14.47;49.95;95804.16;5048235;28;20087;-29
2023/04/17 03:02:10;;;;;;;2.65;1.58;;;;;;;14.49;49.59;95812.63;5039317;28;20021;-29
2023/04/17 03:04:37;;;;;;;3.95;1.60;;;;;;;14.54;49.74;95814.72;5035567;28;20413;-28
2023/04/17 03:07:03;;;;;;;3.08;1.90;;;;;;;14.58;49.53;95815.31;5037453;28;20041;-30
2023/04/17 03:09:29;;;;;;;2.50;1.80;;;;;;;14.47;49.99;95806.13;5037445;28;20057;-30
2023/04/17 03:11:55;;;;;;;2.05;1.85;;;;;;;14.58;49.92;95809.84;5042304;28;20071;-29
2023/04/17 03:14:21;;;;;;;2.17;1.60;;;;;;;14.59;49.67;95805.13;5039312;28;20061;-30
2023/04/17 03:16:46;;;;;;;1.95;1.75;;;;;;;14.44;50.39;95799.66;5044549;28;20380;-30
2023/04/17 03:19:11;;;;;;;2.80;1.95;;;;;;;14.46;49.93;95802.69;5044667;28;20023;-30
2023/04/17 03:21:37;;;;;;;2.95;2.05;;;;;;;14.52;49.95;95800.03;5037075;28;20453;-29
2023/04/17 03:24:02;;;;;;;3.50;1.63;;;;;;;14.58;49.80;95807.13;5036878;28;20118;-29
2023/04/17 03:26:28;;;;;;;2.00;1.60;;;;;;;14.38;50.29;95798.75;5043716;28;20438;-30
2023/04/17 03:28:53;;;;;;;2.25;1.80;;;;;;;14.46;50.14;95794.50;5051030;28;20613;-29
2023/04/17 03:31:21;;;;;;;2.60;1.63;;;;;;;14.40;50.48;95787.41;5035669;28;20435;-29
2023/04/17 03:33:46;;;;;;;2.22;1.63;;;;;;;14.50;49.95;95784.13;5036965;28;20017;-29
2023/04/17 03:36:11;;;;;;;2.88;1.92;;;;;;;14.38;50.34;95790.56;5041187;28;20028;-29
2023/04/17 03:38:37;;;;;;;2.22;1.85;;;;;;;14.55;49.56;95791.69;5046699;28;20025;-29
2023/04/17 03:41:02;;;;;;;3.03;1.92;;;;;;;14.48;50.06;95780.34;5037317;28;20045;-29
2023/04/17 03:43:27;;;;;;;2.42;2.00;;;;;;;14.35;50.00;95777.84;5036830;28;20017;-29
2023/04/17 03:45:53;;;;;;;2.75;1.70;;;;;;;14.26;50.15;95767.78;5036575;28;20412;-29
2023/04/17 03:48:18;;;;;;;2.17;1.70;;;;;;;14.40;49.94;95777.25;5036608;28;20025;-29
2023/04/17 03:50:44;;;;;;;2.08;1.65;;;;;;;14.54;49.33;95767.59;5036527;28;20465;-29
2023/04/17 03:53:09;;;;;;;2.95;1.55;;;;;;;14.51;49.66;95765.78;5036544;28;20051;-29
2023/04/17 03:55:35;;;;;;;3.15;1.92;;;;;;;14.32;49.87;95771.38;5043832;28;20052;-30
2023/04/17 03:58:00;;;;;;;2.30;1.90;;;;;;;14.53;49.53;95769.56;5043382;28;20074;-29
2023/04/17 04:00:26;;;;;;;2.63;1.88;;;;;;;14.53;49.01;95764.09;5044543;28;20461;-29
2023/04/17 04:02:52;;;;;;;2.17;1.75;;;;;;;14.26;50.22;95759.59;5036047;28;20025;-29
2023/04/17 04:05:17;;;;;;;2.05;1.77;;;;;;;14.55;49.27;95771.81;5036423;28;20128;-29
2023/04/17 04:07:43;;;;;;;2.40;1.90;;;;;;;14.49;49.29;95763.53;5039981;28;20427;-29
2023/04/17 04:10:09;;;;;;;2.08;1.77;;;;;;;14.44;49.61;95772.38;5039128;28;20434;-29
2023/04/17 04:12:34;;;;;;;4.03;1.75;;;;;;;14.33;49.58;95769.41;5043650;28;20024;-29
2023/04/17 04:15:00;;;;;;;2.75;1.90;;;;;;;14.55;49.38;95763.63;5036104;28;20032;-29
2023/04/17 04:17:25;;;;;;;2.65;1.80;;;;;;;14.69;49.15;95760.19;5036935;28;20081;-30
2023/04/17 04:19:50;;;;;;;3.35;2.00;;;;;;;14.51;49.30;95766.53;5042920;28;20058;-30
2023/04/17 04:22:17;;;;;;;2.50;1.83;;;;;;;14.56;49.23;95756.97;5042849;28;20017;-29
2023/04/17 04:24:42;;;;;;;2.55;1.80;;;;;;;14.46;49.41;95761.00;5043203;28;20068;-30
2023/04/17 04:27:08;;;;;;;2.83;2.42;;;;;;;14.44;49.28;95772.38;5035918;28;20442;-29
2023/04/17 04:29:36;;;;;;;2.60;1.90;;;;;;;14.55;48.97;95771.81;5035883;28;20151;-29
2023/04/17 04:32:02;;;;;;;2.13;1.70;;;;;;;14.35;49.22;95775.13;5030004;28;20031;-30
2023/04/17 04:34:28;;;;;;;2.30;1.88;;;;;;;14.65;48.62;95767.78;5039776;28;20100;-29
2023/04/17 04:36:54;;;;;;;2.22;2.03;;;;;;;14.47;49.03;95771.41;5043359;28;20408;-29
2023/04/17 04:39:20;;;;;;;2.58;1.70;;;;;;;14.45;48.81;95779.34;5041203;28;20025;-29
2023/04/17 04:41:49;;;;;;;4.75;1.98;;;;;;;14.40;48.90;95782.69;5042678;28;20024;-30
2023/04/17 04:44:18;;;;;;;2.85;1.83;;;;;;;14.43;48.67;95773.59;5028599;28;20017;-31
2023/04/17 04:46:44;;;;;;;3.70;1.92;;;;;;;14.50;48.27;95775.19;5035375;28;20029;-31
2023/04/17 04:49:10;;;;;;;3.60;2.08;;;;;;;14.38;48.57;95782.38;5035346;28;20025;-29
2023/04/17 04:51:35;;;;;;;2.50;1.75;;;;;;;14.52;48.38;95776.22;5040842;28;20101;-29
2023/04/17 04:54:01;;;;;;;2.63;2.13;;;;;;;14.59;48.21;95780.56;5042703;28;20017;-30
2023/04/17 04:56:27;;;;;;;2.25;1.80;;;;;;;14.46;48.34;95772.66;5035808;28;20033;-30
2023/04/17 04:58:52;;;;;;;3.72;2.25;;;;;;;14.63;47.94;95784.63;5035258;28;20380;-29
2023/04/17 05:01:18;;;;;;;2.08;1.70;;;;;;;14.60;48.21;95774.63;5041241;28;20113;-29
2023/04/17 05:03:44;;;;;;;2.22;1.80;;;;;;;14.32;48.70;95776.84;5039623;28;20041;-29
2023/04/17 05:06:10;;;;;;;2.45;1.70;;;;;;;14.44;48.23;95777.06;5036693;28;20026;-30
2023/04/17 05:08:36;;;;;;;2.35;1.70;;;;;;;14.58;48.09;95776.34;5042266;28;20025;-29
2023/04/17 05:11:02;;;;;;;2.42;1.88;;;;;;;14.36;48.59;95782.09;5035064;28;20032;-29
2023/04/17 05:13:29;;;;;;;3.33;1.90;;;;;;;14.51;48.21;95776.69;5031731;28;20029;-30
2023/04/17 05:15:55;;;;;;;2.47;1.67;;;;;;;14.42;48.39;95769.34;5035210;28;20155;-29
2023/04/17 05:18:20;;;;;;;2.25;1.73;;;;;;;14.29;48.45;95769.56;5049111;28;20111;-29
2023/04/17 05:20:46;;;;;;;2.13;1.77;;;;;;;14.43;48.30;95772.84;5042020;28;20032;-30
2023/04/17 05:23:12;;;;;;;2.20;1.60;;;;;;;14.36;48.54;95771.94;5040410;28;20017;-29
2023/04/17 05:25:38;;;;;;;2.40;1.80;;;;;;;14.35;48.61;95780.56;5036044;28;20374;-29
2023/04/17 05:28:04;;;;;;;1.98;1.60;;;;;;;14.46;47.98;95767.22;5034408;28;20044;-29
2023/04/17 05:30:30;;;;;;;2.42;1.92;;;;;;;14.36;48.30;95773.91;5034270;28;20018;-30
2023/04/17 05:32:55;;;;;;;2.95;2.00;;;;;;;14.48;48.01;95789.28;5037184;28;20017;-29
2023/04/17 05:35:20;;;;;;;2.30;1.75;;;;;;;14.34;48.38;95784.56;5039298;28;20465;-29
2023/04/17 05:37:46;;;;;;;2.03;1.77;;;;;;;14.48;48.28;95785.81;5034795;28;20057;-29
2023/04/17 05:40:12;;;;;;;2.65;1.60;;;;;;;14.29;48.70;95785.19;5034447;28;20018;-29
2023/04/17 05:42:37;;;;;;;2.38;1.50;;;;;;;14.43;48.82;95784.50;5041143;28;20028;-29
2023/04/17 05:45:03;;;;;;;2.35;1.70;;;;;;;14.38;48.33;95771.47;5034690;28;20025;-29
2023/04/17 05:47:29;;;;;;;2.78;1.80;;;;;;;14.57;48.33;95763.94;5041368;28;20057;-29
2023/04/17 05:49:57;;;;;;;2.60;1.80;;;;;;;14.51;48.81;95769.28;5034126;28;20025;-29
2023/04/17 05:52:23;;;;;;;4.55;1.90;;;;;;;14.47;48.90;95774.16;5027195;28;20032;-29
2023/04/17 05:54:49;;;;;;;2.45;1.63;;;;;;;14.41;48.96;95776.03;5034245;28;20366;-31
2023/04/17 05:57:15;;;;;;;3.17;1.73;;;;;;;14.43;48.78;95784.50;5034524;28;20032;-30
2023/04/17 05:59:40;;;;;;;2.22;1.70;;;;;;;14.44;48.75;95788.75;5033675;28;20461;-30
2023/04/17 06:02:06;;;;;;;2.42;1.70;;;;;;;14.44;48.67;95791.47;5034007;28;20437;-29
2023/04/17 06:04:32;;;;;;;1.90;1.40;;;;;;;14.54;48.47;95784.72;5026374;28;20037;-29
2023/04/17 06:06:58;;;;;;;2.28;1.80;;;;;;;14.42;48.70;95796.63;5033587;28;20032;-29
2023/04/17 06:09:23;;;;;;;2.03;1.40;;;;;;;14.55;48.55;95788.19;5034929;28;20037;-29
2023/04/17 06:11:48;;;;;;;4.03;1.80;;;;;;;14.37;48.90;95794.50;5040186;28;20530;-29
2023/04/17 06:14:14;;;;;;;2.92;1.73;;;;;;;14.67;48.40;95798.09;5040636;28;20033;-32
2023/04/17 06:16:40;;;;;;;2.97;1.45;;;;;;;14.77;48.19;95798.75;5034288;28;20024;-29
2023/04/17 06:19:05;;;;;;;4.15;1.60;;;;;;;14.57;48.77;95802.13;5040947;28;20147;-29
2023/04/17 06:21:31;;;;;;;2.03;1.52;;;;;;;14.54;48.50;95803.81;5033859;28;20026;-29
2023/04/17 06:23:57;;;;;;;3.55;2.45;;;;;;;14.65;48.31;95809.47;5040764;28;20029;-29
2023/04/17 06:26:22;;;;;;;14.00;8.93;;;;;;;14.53;49.24;95801.53;5040749;28;20423;-29
2023/04/17 06:28:47;;;;;;;31.90;20.00;;;;;;;14.60;48.81;95809.34;5033864;28;20029;-29
2023/04/17 06:31:13;;;;;;;26.17;18.60;;;;;;;14.53;48.97;95807.00;5033619;28;20037;-29
2023/04/17 06:33:38;;;;;;;20.95;15.20;;;;;;;14.62;49.01;95810.41;5033158;28;20027;-28
2023/04/17 06:36:04;;;;;;;15.02;11.07;;;;;;;14.47;49.45;95803.41;5041158;28;20079;-29
2023/04/17 06:38:29;;;;;;;21.67;14.70;;;;;;;14.57;49.21;95813.81;5033652;28;20038;-29
2023/04/17 06:40:55;;;;;;;49.83;24.45;;;;;;;14.76;48.98;95819.09;5041544;28;20025;-29
2023/04/17 06:43:21;;;;;;;47.33;23.50;;;;;;;14.82;48.64;95807.06;5046778;28;20406;-30
2023/04/17 06:45:47;;;;;;;41.95;19.88;;;;;;;14.55;49.11;95804.56;5033272;28;20334;-29
2023/04/17 06:48:12;;;;;;;27.17;14.02;;;;;;;14.51;48.90;95818.38;5040558;28;20026;-29
2023/04/17 06:50:38;;;;;;;27.42;15.30;;;;;;;14.56;48.94;95801.38;5033417;28;20376;-29
2023/04/17 06:53:03;;;;;;;20.38;10.77;;;;;;;14.62;48.83;95796.75;5040783;28;20441;-29
2023/04/17 06:55:29;;;;;;;19.40;9.57;;;;;;;14.61;48.83;95797.97;5037250;28;20021;-29
2023/04/17 06:57:57;;;;;;;30.33;15.02;;;;;;;14.56;48.95;95817.75;5036707;28;20017;-30
2023/04/17 07:00:23;;;;;;;25.70;13.05;;;;;;;14.76;48.64;95813.63;5041027;28;20020;-29
2023/04/17 07:02:48;;;;;;;15.95;9.07;;;;;;;14.67;48.47;95812.50;5033281;28;20026;-28
2023/04/17 07:05:13;;;;;;;9.80;5.88;;;;;;;14.71;48.48;95812.31;5034009;28;20136;-29
2023/04/17 07:07:40;;;;;;;8.40;4.60;;;;;;;14.51;49.10;95815.66;5039057;28;20028;-29
2023/04/17 07:10:06;;;;;;;6.07;3.58;;;;;;;14.67;48.75;95826.16;5040513;28;20029;-29
2023/04/17 07:12:32;;;;;;;4.25;3.13;;;;;;;14.73;48.75;95823.50;5028506;28;20033;-31
2023/04/17 07:14:57;;;;;;;3.35;2.42;;;;;;;14.68;49.45;95840.53;5032158;28;20025;-31
2023/04/17 07:17:23;;;;;;;2.78;2.00;;;;;;;14.72;48.70;95844.59;5033283;28;20049;-31
2023/04/17 07:19:48;;;;;;;5.15;3.10;;;;;;;14.68;48.92;95848.72;5040730;28;20381;-31
2023/04/17 07:22:13;;;;;;;4.78;2.53;;;;;;;14.82;48.66;95852.72;5039507;28;20017;-29
2023/04/17 07:24:39;;;;;;;2.70;2.20;;;;;;;14.53;49.08;95869.75;5042053;28;20171;-29
2023/04/17 07:27:06;;;;;;;3.70;2.40;;;;;;;14.57;49.33;95856.69;5039210;28;20483;-31
2023/04/17 07:29:31;;;;;;;2.75;2.22;;;;;;;14.64;48.93;95862.56;5035133;28;20037;-30
2023/04/17 07:31:57;;;;;;;2.35;1.83;;;;;;;14.66;48.93;95865.56;5037024;28;20377;-31
2023/04/17 07:34:24;;;;;;;2.67;1.70;;;;;;;14.81;48.90;95857.44;5036895;28;20021;-29
2023/04/17 07:36:51;;;;;;;2.55;1.70;;;;;;;14.77;48.61;95856.84;5044287;28;20018;-30
2023/04/17 07:39:17;;;;;;;2.63;1.80;;;;;;;14.65;48.88;95864.06;5043940;28;20080;-30
2023/04/17 07:41:43;;;;;;;1.75;1.38;;;;;;;14.63;48.87;95863.78;5043044;28;20045;-29
2023/04/17 07:44:08;;;;;;;2.63;1.65;;;;;;;14.74;48.63;95858.53;5043443;28;20469;-31
2023/04/17 07:46:33;;;;;;;1.77;1.30;;;;;;;14.68;49.02;95846.75;5035254;28;20033;-29
2023/04/17 07:48:59;;;;;;;2.03;1.50;;;;;;;14.69;48.94;95851.00;5043908;28;20465;-29
2023/04/17 07:51:25;;;;;;;2.88;1.60;;;;;;;14.98;48.46;95852.25;5040063;28;20017;-29
2023/04/17 07:53:50;;;;;;;1.80;1.50;;;;;;;15.08;48.46;95854.44;5039715;28;20385;-28
2023/04/17 07:56:16;;;;;;;4.82;1.50;;;;;;;14.76;48.92;95857.31;5036760;28;20018;-29
2023/04/17 07:58:43;;;;;;;2.55;1.40;;;;;;;15.06;48.69;95861.59;5035955;28;20476;-29
2023/04/17 08:01:09;;;;;;;1.58;1.40;;;;;;;15.12;48.65;95859.72;5036461;28;20025;-30
2023/04/17 08:03:35;;;;;;;1.60;1.30;;;;;;;15.19;48.80;95850.41;5036318;28;20057;-30
2023/04/17 08:06:00;;;;;;;1.95;1.40;;;;;;;15.32;48.57;95848.16;5043502;28;20057;-29
2023/04/17 08:08:26;;;;;;;2.15;1.40;;;;;;;15.36;48.52;95860.38;5043888;28;20397;-29
2023/04/17 08:10:51;;;;;;;2.72;1.60;;;;;;;15.29;48.82;95871.69;5036301;28;20458;-29
2023/04/17 08:13:17;;;;;;;2.30;1.40;;;;;;;15.15;49.08;95877.91;5036082;28;20454;-29
2023/04/17 08:15:42;;;;;;;1.88;1.48;;;;;;;15.46;48.45;95864.53;5035952;28;20025;-31
2023/04/17 08:18:08;;;;;;;1.77;1.40;;;;;;;15.38;48.70;95866.13;5035783;28;20021;-29
2023/04/17 08:20:34;;;;;;;1.42;1.33;;;;;;;15.53;48.62;95879.06;5037160;28;20040;-30
2023/04/17 08:23:00;;;;;;;2.25;1.50;;;;;;;15.61;48.33;95880.94;5045764;28;20473;-29
2023/04/17 08:25:26;;;;;;;2.97;1.75;;;;;;;15.63;48.27;95888.69;5038196;28;20040;-29
2023/04/17 08:27:51;;;;;;;2.30;1.50;;;;;;;15.51;48.45;95887.72;5036942;28;20022;-29
2023/04/17 08:30:17;;;;;;;3.13;1.50;;;;;;;15.56;48.48;95908.22;5039332;28;20155;-30
2023/04/17 08:32:44;;;;;;;1.30;1.20;;;;;;;15.63;48.31;95894.16;5043121;28;20358;-29
2023/04/17 08:35:12;;;;;;;1.98;1.10;;;;;;;15.43;48.53;95895.56;5042895;28;20017;-30
2023/04/17 08:37:38;;;;;;;1.77;1.23;;;;;;;15.53;48.44;95909.13;5035516;28;20044;-29
2023/04/17 08:40:08;;;;;;;1.80;1.30;;;;;;;15.56;48.79;95908.97;5041041;28;20449;-29
2023/04/17 08:42:37;;;;;;;2.05;1.30;;;;;;;15.52;48.88;95905.63;5042717;28;20033;-29
2023/04/17 08:45:12;;;;;;;1.88;1.23;;;;;;;15.65;48.55;95908.09;5035791;28;20030;-30
2023/04/17 08:47:42;;;;;;;2.25;1.42;;;;;;;15.62;48.56;95889.91;5041614;28;20066;-29
2023/04/17 08:50:08;;;;;;;2.70;1.20;;;;;;;15.51;49.20;95895.16;5036268;28;20025;-29
2023/04/17 08:52:38;;;;;;;1.40;1.08;;;;;;;15.69;48.62;95892.28;5033996;28;20489;-29
2023/04/17 08:55:05;;;;;;;1.95;1.30;;;;;;;15.72;48.63;95894.78;5035717;28;20028;-29
2023/04/17 08:57:30;;;;;;;2.00;1.10;;;;;;;15.68;48.86;95907.16;5033934;28;20144;-31
2023/04/17 08:59:55;;;;;;;2.50;1.20;;;;;;;15.92;48.04;95902.34;5042384;28;20096;-30
2023/04/17 09:02:21;;;;;;;3.10;1.80;;;;;;;15.67;49.13;95900.19;5041867;28;20055;-29
2023/04/17 09:04:47;;;;;;;1.75;1.30;;;;;;;15.88;48.72;95899.03;5037546;28;20145;-29
2023/04/17 09:07:14;;;;;;;1.90;1.27;;;;;;;15.93;48.59;95887.44;5035438;28;20071;-29
2023/04/17 09:09:54;;;;;;;3.60;1.08;;;;;;;15.88;48.50;95893.56;5035015;28;20026;-30
2023/04/17 09:12:24;;;;;;;1.38;1.00;;;;;;;15.76;48.87;95898.09;5042116;28;20075;-30
2023/04/17 09:14:50;;;;;;;1.60;1.15;;;;;;;15.77;48.89;95907.81;5042164;28;20028;-29
2023/04/17 09:17:17;;;;;;;2.08;1.10;;;;;;;15.66;48.89;95893.97;5034476;28;20021;-28
2023/04/17 09:20:11;;;;;;;1.55;1.05;;;;;;;15.62;48.84;95889.91;5041158;28;20017;-29
2023/04/17 09:22:40;;;;;;;1.45;1.00;;;;;;;15.81;48.75;95902.16;5035571;28;20033;-29
2023/04/17 09:25:19;;;;;;;2.67;1.00;;;;;;;15.57;48.87;95888.59;5047559;28;20083;-29
2023/04/17 09:27:45;;;;;;;2.63;1.30;;;;;;;15.90;48.43;95885.66;5040997;28;20105;-29
2023/04/17 09:30:12;;;;;;;2.33;0.98;;;;;;;15.77;48.26;95896.13;5033126;28;20025;-28
2023/04/17 09:32:39;;;;;;;1.88;0.98;;;;;;;15.65;48.82;95888.97;5034640;28;20053;-29
2023/04/17 09:35:05;;;;;;;3.05;1.25;;;;;;;16.00;48.17;95892.50;5027563;28;20025;-29
2023/04/17 09:37:51;;;;;;;2.40;1.10;;;;;;;15.66;48.80;95887.75;5034404;28;20033;-31
2023/04/17 09:40:21;;;;;;;3.58;1.30;;;;;;;15.81;48.39;95891.22;5030895;28;20464;-29
2023/04/17 09:43:01;;;;;;;3.00;1.55;;;;;;;15.75;48.61;95901.31;5044149;28;20607;-30
2023/04/17 09:45:32;;;;;;;1.83;1.27;;;;;;;15.78;48.86;95903.09;5028522;28;20029;-29
2023/04/17 09:47:59;;;;;;;0.82;0.73;;;;;;;15.97;48.29;95898.16;5034741;28;20025;-30
2023/04/17 09:50:25;;;;;;;2.47;1.13;;;;;;;15.92;48.48;95899.59;5033047;28;20385;-30
2023/04/17 09:52:52;;;;;;;1.38;1.00;;;;;;;16.00;48.59;95897.22;5033558;28;20029;-28
2023/04/17 09:55:20;;;;;;;3.78;1.20;;;;;;;15.87;49.00;95891.28;5034699;28;20029;-33
2023/04/17 09:57:50;;;;;;;1.73;1.20;;;;;;;16.06;48.45;95881.66;5041100;28;20021;-29
2023/04/17 10:00:19;;;;;;;1.30;1.10;;;;;;;15.90;48.77;95880.16;5042019;28;20419;-30
2023/04/17 10:02:52;;;;;;;1.45;0.93;;;;;;;15.86;48.90;95896.00;5034377;28;20051;-30
2023/04/17 10:05:19;;;;;;;2.97;1.65;;;;;;;15.82;48.92;95887.28;5033844;28;20073;-30
2023/04/17 10:07:45;;;;;;;2.20;1.05;;;;;;;15.90;48.52;95893.09;5034247;28;20057;-29
2023/04/17 10:10:32;;;;;;;1.25;1.05;;;;;;;15.90;49.06;95885.66;5040866;28;20224;-29
2023/04/17 10:13:00;;;;;;;1.73;1.00;;;;;;;16.12;48.65;95896.91;5028843;28;20025;-29
2023/04/17 10:15:27;;;;;;;1.00;0.90;;;;;;;16.04;48.57;95900.53;5034247;28;20029;-31
2023/04/17 10:17:56;;;;;;;5.32;1.25;;;;;;;16.02;48.51;95894.78;5037914;28;20024;-31
2023/04/17 10:20:24;;;;;;;1.83;1.13;;;;;;;16.02;48.97;95897.50;5036059;28;20079;-29
2023/04/17 10:22:53;;;;;;;1.98;0.90;;;;;;;15.98;48.86;95905.91;5041449;28;20377;-29
2023/04/17 10:25:27;;;;;;;2.65;1.08;;;;;;;16.05;48.97;95894.56;5033749;28;20067;-31
2023/04/17 10:27:58;;;;;;;1.10;0.90;;;;;;;16.07;49.08;95892.09;5040676;28;20025;-29
2023/04/17 10:30:44;;;;;;;2.47;1.20;;;;;;;16.04;49.18;95890.34;5033640;28;20049;-29
2023/04/17 10:33:09;;;;;;;2.10;0.93;;;;;;;16.12;48.99;95896.91;5027562;28;20061;-29
2023/04/17 10:35:35;;;;;;;1.88;0.90;;;;;;;16.14;48.93;95875.31;5033502;28;20049;-29
2023/04/17 10:38:03;;;;;;;1.15;0.90;;;;;;;16.16;48.73;95883.78;5040939;28;20082;-29
2023/04/17 10:40:30;;;;;;;0.75;0.65;;;;;;;16.19;48.66;95884.06;5040883;28;20021;-29
2023/04/17 10:43:22;;;;;;;1.00;0.90;;;;;;;16.09;49.03;95892.38;5040274;28;20104;-29
2023/04/17 10:46:13;;;;;;;2.38;1.02;;;;;;;16.21;48.61;95898.75;5033277;28;20045;-29
2023/04/17 10:49:03;;;;;;;1.42;0.90;;;;;;;16.21;48.46;95890.56;5029426;28;20031;-30
2023/04/17 10:51:28;;;;;;;1.92;0.80;;;;;;;16.07;48.85;95883.91;5032472;28;20025;-30
2023/04/17 10:53:56;;;;;;;1.55;0.77;;;;;;;16.16;48.54;95889.28;5040525;28;20097;-29
2023/04/17 10:56:29;;;;;;;1.60;0.77;;;;;;;16.24;48.38;95880.66;5047844;28;20075;-28
2023/04/17 10:58:55;;;;;;;0.82;0.68;;;;;;;16.05;48.53;95883.63;5033904;28;20023;-29
2023/04/17 11:01:25;;;;;;;1.58;1.13;;;;;;;16.05;48.51;95872.69;5040985;28;20028;-29
2023/04/17 11:03:51;;;;;;;2.10;0.80;;;;;;;16.13;48.68;95879.28;5034926;28;20080;-30
2023/04/17 11:06:17;;;;;;;1.80;0.80;;;;;;;16.03;48.54;95866.94;5051394;28;20461;-28
2023/04/17 11:08:42;;;;;;;1.45;0.82;;;;;;;16.02;48.82;95876.38;5040463;28;20033;-29
2023/04/17 11:11:10;;;;;;;2.45;1.27;;;;;;;16.06;48.55;95857.03;5040513;28;20036;-28
2023/04/17 11:13:36;;;;;;;1.50;1.20;;;;;;;16.00;48.42;95873.34;5036320;28;20016;-29
2023/04/17 11:16:03;;;;;;;2.28;1.17;;;;;;;16.12;48.49;95863.31;5037259;28;20463;-30
2023/04/17 11:18:30;;;;;;;1.55;0.95;;;;;;;16.02;49.03;95870.16;5037805;28;20424;-29
2023/04/17 11:20:56;;;;;;;1.67;1.10;;;;;;;16.13;48.43;95865.59;5043590;28;20087;-29
2023/04/17 11:23:21;;;;;;;2.15;1.00;;;;;;;16.25;47.84;95863.75;5050761;28;20031;-28
2023/04/17 11:25:47;;;;;;;2.75;1.65;;;;;;;16.21;48.11;95859.72;5037427;28;20021;-29
2023/04/17 11:28:12;;;;;;;3.22;2.20;;;;;;;15.94;48.86;95858.09;5037105;28;20457;-31
2023/04/17 11:30:43;;;;;;;1.95;1.40;;;;;;;16.26;48.16;95853.56;5037197;28;20033;-29